West Millgrove, Ohio
Current Conditions -  °F | °C
As of 12:53 PM on Friday 31 Oct 2014 (Local Time) from KFDY Reporting Station
Light Rain Light Rain  
Wind Chill: 37°   Ceiling: 1700
Heat Index: 43°   Visibility: 9mi
Dew Point: 39°   Wind: 10mph
Humidity: 86%   Direction: 320°NW
Pressure: 29.88"   Gusts: NA
Location:  41.24°N, 83.49°W
Report Text: KFDY 311653Z AUTO 32009KT 9SM -RA FEW009 OVC017 06/04 A2988 RMK AO2 WSHFT 1623 SLP119 P0004 T00610039
Loading
Personal Weather Stations






























Interactive Weather Map
Tropical Storm Tracking
New forecast layout! Learn more

10-Day Weather Forecast

Advertisements
Track Severe Weather on mobile